createdAt,value
2016-05-27T00:00:52.231Z,51.14
2016-05-27T00:01:55.030Z,51.04
2016-05-27T00:02:55.173Z,50.75
2016-05-27T00:03:49.786Z,50.46
2016-05-27T00:04:48.882Z,50.84
2016-05-27T00:05:52.009Z,51.32
2016-05-27T00:06:48.966Z,51.14
2016-05-27T00:07:48.750Z,51.14
2016-05-27T00:08:51.705Z,51.42
2016-05-27T00:09:49.005Z,51.14
2016-05-27T00:10:51.773Z,51.04
2016-05-27T00:11:48.916Z,51.14
2016-05-27T00:12:48.685Z,51.42
2016-05-27T00:13:48.484Z,51.51
2016-05-27T00:14:48.425Z,51.71
2016-05-27T00:15:48.536Z,51.51
2016-05-27T00:16:48.476Z,51.61
2016-05-27T00:17:48.276Z,51.23
2016-05-27T00:18:48.404Z,51.14
2016-05-27T00:19:51.376Z,51.42
2016-05-27T00:20:48.316Z,51.32
2016-05-27T00:21:48.287Z,51.42
2016-05-27T00:22:48.054Z,51.42
2016-05-27T00:23:51.167Z,51.51
2016-05-27T00:24:51.233Z,52
2016-05-27T00:25:48.079Z,51.9
2016-05-27T00:26:48.020Z,52.09
2016-05-27T00:27:51.006Z,51.9
2016-05-27T00:28:47.946Z,51.9
2016-05-27T00:29:47.886Z,52
2016-05-27T00:30:50.842Z,51.9
2016-05-27T00:31:53.829Z,51.71
2016-05-27T00:32:47.598Z,51.61
2016-05-27T00:33:50.913Z,52.09
2016-05-27T00:34:50.525Z,52
2016-05-27T00:35:50.621Z,52.28
2016-05-27T00:36:50.436Z,52.09
2016-05-27T00:37:47.517Z,51.9
2016-05-27T00:38:50.489Z,52.09
2016-05-27T00:39:47.444Z,52.19
2016-05-27T00:40:59.403Z,52.19
2016-05-27T00:41:47.341Z,52.09
2016-05-27T00:42:50.296Z,52
2016-05-27T00:43:47.252Z,52
2016-05-27T00:44:56.239Z,52.09
2016-05-27T00:45:47.149Z,52.19
2016-05-27T00:46:50.307Z,52.09
2016-05-27T00:47:50.060Z,52.09
2016-05-27T00:48:50.296Z,52.38
2016-05-27T00:49:47.503Z,52.09
2016-05-27T00:50:49.927Z,52.38
2016-05-27T00:51:49.712Z,52.38
2016-05-27T00:52:46.839Z,52.48
2016-05-27T00:53:46.623Z,52.28
2016-05-27T00:54:46.766Z,52.95
2016-05-27T00:55:46.737Z,52.95
2016-05-27T00:56:46.850Z,52.76
2016-05-27T00:57:46.446Z,53.05
2016-05-27T00:58:46.542Z,53.24
2016-05-27T00:59:46.515Z,52.95
2016-05-27T01:00:46.454Z,52.86
2016-05-27T01:01:46.409Z,53.05
2016-05-27T01:02:46.367Z,52.67
2016-05-27T01:03:49.947Z,52.95
2016-05-27T01:04:46.293Z,52.57
2016-05-27T01:05:46.436Z,53.15
2016-05-27T01:06:46.189Z,52.86
2016-05-27T01:07:46.161Z,53.34
2016-05-27T01:08:46.132Z,53.24
2016-05-27T01:09:46.041Z,53.05
2016-05-27T01:10:45.855Z,53.34
2016-05-27T01:11:45.952Z,53.15
2016-05-27T01:12:46.127Z,53.53
2016-05-27T01:13:45.880Z,53.05
2016-05-27T01:14:45.820Z,52.95
2016-05-27T01:15:48.791Z,53.63
2016-05-27T01:16:45.732Z,53.44
2016-05-27T01:17:45.703Z,53.72
2016-05-27T01:18:48.675Z,53.53
2016-05-27T01:19:45.599Z,53.34
2016-05-27T01:20:48.586Z,53.44
2016-05-27T01:21:45.495Z,53.24
2016-05-27T01:22:48.671Z,53.72
2016-05-27T01:23:45.390Z,53.82
2016-05-27T01:24:48.253Z,53.53
2016-05-27T01:25:48.349Z,53.72
2016-05-27T01:26:45.259Z,53.63
2016-05-27T01:27:48.090Z,53.72
2016-05-27T01:28:48.187Z,53.72
2016-05-27T01:29:45.126Z,53.44
2016-05-27T01:30:45.082Z,53.44
2016-05-27T01:31:45.037Z,53.53
2016-05-27T01:32:44.993Z,53.63
2016-05-27T01:33:48.168Z,53.53
2016-05-27T01:34:47.953Z,53.63
2016-05-27T01:35:47.876Z,53.34
2016-05-27T01:36:47.816Z,53.72
2016-05-27T01:37:44.757Z,53.44
2016-05-27T01:38:47.728Z,53.44
2016-05-27T01:39:44.669Z,53.53
2016-05-27T01:40:44.624Z,53.63
2016-05-27T01:41:44.564Z,53.72
2016-05-27T01:42:44.552Z,53.72
2016-05-27T01:43:47.695Z,53.53
2016-05-27T01:44:44.275Z,53.72
2016-05-27T01:45:44.388Z,53.82
2016-05-27T01:46:47.344Z,54.3
2016-05-27T01:47:44.158Z,54.11
2016-05-27T01:48:44.255Z,54.11
2016-05-27T01:49:44.213Z,54.08
2016-05-27T01:50:47.188Z,54.11
2016-05-27T01:51:44.148Z,54.11
2016-05-27T01:52:44.139Z,54.11
2016-05-27T01:53:44.129Z,54.11
2016-05-27T01:54:44.087Z,54.01
2016-05-27T01:55:44.050Z,53.91
2016-05-27T01:56:43.997Z,53.82
2016-05-27T01:57:55.991Z,53.91
2016-05-27T01:58:43.923Z,54.37
2016-05-27T01:59:43.868Z,54.39
2016-05-27T02:00:44.046Z,54.46
2016-05-27T02:01:46.802Z,54.17
2016-05-27T02:02:43.744Z,54.66
2016-05-27T02:03:44.062Z,55.13
2016-05-27T02:04:46.677Z,55.04
2016-05-27T02:05:47.148Z,54.94
2016-05-27T02:06:43.777Z,55.04
2016-05-27T02:07:46.531Z,55.62
2016-05-27T02:08:46.488Z,55.42
2016-05-27T02:09:46.444Z,55.33
2016-05-27T02:10:46.401Z,55.33
2016-05-27T02:11:43.543Z,55.42
2016-05-27T02:12:46.125Z,55.33
2016-05-27T02:13:52.269Z,55.42
2016-05-27T02:14:43.209Z,55.62
2016-05-27T02:15:46.165Z,55.52
2016-05-27T02:16:48.996Z,55.71
2016-05-27T02:17:49.093Z,55.42
2016-05-27T02:18:43.877Z,55.52
2016-05-27T02:19:43.270Z,55.62
2016-05-27T02:20:42.772Z,55.71
2016-05-27T02:21:45.884Z,56
2016-05-27T02:22:51.856Z,55.62
2016-05-27T02:23:42.780Z,56
2016-05-27T02:24:42.752Z,55.71
2016-05-27T02:25:45.551Z,55.9
2016-05-27T02:26:42.648Z,55.71
2016-05-27T02:27:45.619Z,56.19
2016-05-27T02:28:42.559Z,56.29
2016-05-27T02:29:42.500Z,56.09
2016-05-27T02:30:45.315Z,56.19
2016-05-27T02:31:42.426Z,55.8
2016-05-27T02:32:42.367Z,56
2016-05-27T02:33:42.463Z,56.29
2016-05-27T02:34:42.107Z,56
2016-05-27T02:35:42.234Z,56.19
2016-05-27T02:36:42.222Z,56.09
2016-05-27T02:37:45.146Z,56.09
2016-05-27T02:38:45.087Z,56.29
2016-05-27T02:39:42.042Z,56.38
2016-05-27T02:40:44.841Z,56.86
2016-05-27T02:41:41.938Z,56.45
2016-05-27T02:42:44.925Z,56.57
2016-05-27T02:43:41.850Z,56.57
2016-05-27T02:44:45.228Z,56.64
2016-05-27T02:45:41.761Z,56.48
2016-05-27T02:46:41.560Z,56.48
2016-05-27T02:47:41.673Z,56.67
2016-05-27T02:48:41.644Z,56.67
2016-05-27T02:49:44.585Z,56.48
2016-05-27T02:50:41.541Z,56.57
2016-05-27T02:51:41.684Z,56.76
2016-05-27T02:52:44.452Z,56.76
2016-05-27T02:53:44.236Z,56.96
2016-05-27T02:54:47.363Z,57.24
2016-05-27T02:55:41.304Z,57.31
2016-05-27T02:56:44.260Z,56.83
2016-05-27T02:57:44.215Z,56.96
2016-05-27T02:58:41.156Z,56.96
2016-05-27T02:59:44.127Z,57.06
2016-05-27T03:00:41.068Z,57.12
2016-05-27T03:01:41.212Z,56.83
2016-05-27T03:02:46.995Z,56.93
2016-05-27T03:03:43.935Z,57.12
2016-05-27T03:04:43.890Z,57.12
2016-05-27T03:05:43.847Z,57.03
2016-05-27T03:06:40.803Z,57.03
2016-05-27T03:07:43.743Z,57.12
2016-05-27T03:08:40.698Z,56.93
2016-05-27T03:09:40.639Z,57.12
2016-05-27T03:10:40.626Z,57.6
2016-05-27T03:11:43.550Z,57.31
2016-05-27T03:12:43.725Z,57.98
2016-05-27T03:13:43.477Z,57.98
2016-05-27T03:14:43.434Z,58.08
2016-05-27T03:15:40.374Z,57.89
2016-05-27T03:16:40.517Z,58.46
2016-05-27T03:17:40.269Z,58.46
2016-05-27T03:18:40.444Z,58.27
2016-05-27T03:19:40.041Z,58.37
2016-05-27T03:20:40.153Z,58.27
2016-05-27T03:21:40.108Z,58.08
2016-05-27T03:22:39.893Z,58.27
2016-05-27T03:23:40.005Z,58.17
2016-05-27T03:24:42.976Z,58.08
2016-05-27T03:25:39.901Z,58.08
2016-05-27T03:26:40.434Z,58.37
2016-05-27T03:27:39.827Z,58.46
2016-05-27T03:28:39.612Z,58.17
2016-05-27T03:29:42.724Z,58.65
2016-05-27T03:30:39.664Z,58.37
2016-05-27T03:31:39.479Z,58.94
2016-05-27T03:32:39.576Z,58.84
2016-05-27T03:33:46.047Z,58.56
2016-05-27T03:34:39.503Z,58.46
2016-05-27T03:35:42.459Z,58.27
2016-05-27T03:36:39.383Z,58.46
2016-05-27T03:37:42.354Z,58.65
2016-05-27T03:38:39.357Z,59.23
2016-05-27T03:39:45.109Z,58.94
2016-05-27T03:40:39.409Z,58.94
2016-05-27T03:41:45.147Z,59.04
2016-05-27T03:42:39.118Z,59.13
2016-05-27T03:43:39.074Z,59.01
2016-05-27T03:44:38.858Z,59.52
2016-05-27T03:45:38.970Z,59.04
2016-05-27T03:46:38.925Z,59.71
2016-05-27T03:47:38.881Z,59.13
2016-05-27T03:48:41.853Z,59.33
2016-05-27T03:49:41.824Z,59.33
2016-05-27T03:50:38.577Z,59.33
2016-05-27T03:51:38.674Z,59.33
2016-05-27T03:52:38.644Z,59.23
2016-05-27T03:53:38.460Z,59.61
2016-05-27T03:54:38.572Z,59.42
2016-05-27T03:55:38.496Z,59.48
2016-05-27T03:56:38.452Z,59.52
2016-05-27T03:57:38.252Z,59.71
2016-05-27T03:58:38.379Z,59.71
2016-05-27T03:59:38.320Z,60.28
2016-05-27T04:00:38.260Z,59.87
2016-05-27T04:01:41.231Z,59.87
2016-05-27T04:02:38.187Z,59.68
2016-05-27T04:03:38.596Z,59.87
2016-05-27T04:04:38.084Z,60.09
2016-05-27T04:05:38.039Z,60.25
2016-05-27T04:06:41.011Z,60.16
2016-05-27T04:07:37.935Z,60.06
2016-05-27T04:08:37.906Z,60.25
2016-05-27T04:09:37.894Z,60.64
2016-05-27T04:10:37.803Z,60.35
2016-05-27T04:11:37.759Z,60.16
2016-05-27T04:12:37.714Z,60.16
2016-05-27T04:13:37.655Z,60.64
2016-05-27T04:14:37.610Z,60.38
2016-05-27T04:15:37.566Z,60.16
2016-05-27T04:16:40.522Z,60.44
2016-05-27T04:17:37.462Z,60.64
2016-05-27T04:18:37.652Z,60.54
2016-05-27T04:19:37.374Z,60.54
2016-05-27T04:20:37.345Z,60.73
2016-05-27T04:21:37.285Z,60.44
2016-05-27T04:22:40.241Z,60.25
2016-05-27T04:23:37.228Z,60.54
2016-05-27T04:24:37.012Z,60.93
2016-05-27T04:25:37.109Z,60.83
2016-05-27T04:26:37.049Z,60.73
2016-05-27T04:27:37.004Z,61.05
2016-05-27T04:28:37.163Z,60.64
2016-05-27T04:29:37.104Z,60.64
2016-05-27T04:30:36.715Z,60.57
2016-05-27T04:31:37.031Z,60.54
2016-05-27T04:32:36.768Z,60.57
2016-05-27T04:33:36.723Z,60.67
2016-05-27T04:34:36.664Z,60.67
2016-05-27T04:35:36.635Z,60.57
2016-05-27T04:36:36.997Z,60.57
2016-05-27T04:37:36.531Z,60.67
2016-05-27T04:38:39.487Z,60.57
2016-05-27T04:39:36.443Z,60.57
2016-05-27T04:40:36.430Z,60.57
2016-05-27T04:41:36.339Z,60.35
2016-05-27T04:42:36.295Z,60.86
2016-05-27T04:43:39.251Z,60.83
2016-05-27T04:44:39.222Z,61.05
2016-05-27T04:45:36.162Z,60.93
2016-05-27T04:46:36.119Z,60.93
2016-05-27T04:47:36.074Z,60.93
2016-05-27T04:48:36.405Z,60.93
2016-05-27T04:49:36.251Z,60.93
2016-05-27T04:50:35.925Z,60.93
2016-05-27T04:51:35.866Z,60.86
2016-05-27T04:52:35.838Z,60.86
2016-05-27T04:53:38.793Z,60.83
2016-05-27T04:54:35.733Z,61.11
2016-05-27T04:55:35.689Z,61.31
2016-05-27T04:56:35.660Z,61.4
2016-05-27T04:57:35.804Z,61.6
2016-05-27T04:58:38.572Z,61.63
2016-05-27T04:59:35.513Z,61.6
2016-05-27T05:00:38.296Z,61.72
2016-05-27T05:01:35.409Z,61.69
2016-05-27T05:02:35.348Z,61.72
2016-05-27T05:03:35.523Z,61.6
2016-05-27T05:04:35.260Z,61.72
2016-05-27T05:05:35.215Z,61.5
2016-05-27T05:06:41.234Z,61.72
2016-05-27T05:07:41.159Z,61.69
2016-05-27T05:08:37.928Z,61.82
2016-05-27T05:09:35.148Z,61.72
2016-05-27T05:10:37.995Z,61.34
2016-05-27T05:11:35.014Z,61.5
2016-05-27T05:12:37.907Z,61.63
2016-05-27T05:13:34.848Z,61.53
2016-05-27T05:14:34.787Z,61.43
2016-05-27T05:15:34.587Z,61.5
2016-05-27T05:16:34.714Z,61.53
2016-05-27T05:17:34.655Z,61.43
2016-05-27T05:18:38.251Z,61.43
2016-05-27T05:19:34.425Z,61.43
2016-05-27T05:20:37.538Z,61.63
2016-05-27T05:21:34.821Z,61.63
2016-05-27T05:22:34.433Z,62.2
2016-05-27T05:23:37.671Z,61.91
2016-05-27T05:24:34.596Z,61.82
2016-05-27T05:25:34.285Z,61.72
2016-05-27T05:26:34.241Z,61.91
2016-05-27T05:27:34.400Z,62.2
2016-05-27T05:28:34.138Z,62.3
2016-05-27T05:29:34.110Z,62.39
2016-05-27T05:30:34.251Z,62.1
2016-05-27T05:31:34.005Z,62.39
2016-05-27T05:32:36.946Z,62.3
2016-05-27T05:33:34.260Z,62.3
2016-05-27T05:34:34.060Z,62.1
2016-05-27T05:35:33.813Z,61.91
2016-05-27T05:36:33.768Z,61.82
2016-05-27T05:37:33.568Z,61.82
2016-05-27T05:38:33.665Z,61.82
2016-05-27T05:39:33.636Z,61.91
2016-05-27T05:40:39.435Z,61.82
2016-05-27T05:41:33.547Z,62.01
2016-05-27T05:42:33.488Z,61.82
2016-05-27T05:43:33.443Z,61.91
2016-05-27T05:44:33.414Z,62.2
2016-05-27T05:45:33.339Z,61.43
2016-05-27T05:46:33.139Z,61.53
2016-05-27T05:47:33.297Z,61.34
2016-05-27T05:48:33.206Z,61.43
2016-05-27T05:49:33.538Z,61.46
2016-05-27T05:50:33.119Z,61.56
2016-05-27T05:51:36.058Z,61.66
2016-05-27T05:52:33.030Z,61.66
2016-05-27T05:53:32.985Z,61.27
2016-05-27T05:54:32.942Z,60.99
2016-05-27T05:55:32.882Z,60.99
2016-05-27T05:56:35.838Z,60.89
2016-05-27T05:57:32.793Z,60.99
2016-05-27T05:58:35.593Z,61.08
2016-05-27T05:59:35.705Z,61.37
2016-05-27T06:00:32.646Z,61.08
2016-05-27T06:01:32.805Z,61.08
2016-05-27T06:02:32.557Z,60.53
2016-05-27T06:03:32.951Z,60.7
2016-05-27T06:04:32.484Z,60.41
2016-05-27T06:05:35.424Z,60.82
2016-05-27T06:06:32.380Z,60.72
2016-05-27T06:07:35.337Z,60.25
2016-05-27T06:08:32.276Z,60.25
2016-05-27T06:09:35.435Z,60.44
2016-05-27T06:10:32.188Z,60.44
2016-05-27T06:11:35.159Z,60.63
2016-05-27T06:12:32.083Z,60.35
2016-05-27T06:13:32.040Z,60.05
2016-05-27T06:14:35.011Z,60.25
2016-05-27T06:15:31.811Z,60.15
2016-05-27T06:16:32.110Z,59.96
2016-05-27T06:17:31.864Z,60.25
2016-05-27T06:18:31.819Z,60.05
2016-05-27T06:19:32.211Z,60.05
2016-05-27T06:20:31.731Z,59.67
2016-05-27T06:21:31.686Z,59.89
2016-05-27T06:22:35.330Z,59.89
2016-05-27T06:23:31.597Z,59.51
2016-05-27T06:24:31.553Z,59.51
2016-05-27T06:25:31.353Z,59.51
2016-05-27T06:26:31.449Z,59.99
2016-05-27T06:27:31.499Z,59.7
2016-05-27T06:28:31.393Z,59.61
2016-05-27T06:29:31.317Z,59.99
2016-05-27T06:30:31.273Z,59.51
2016-05-27T06:31:31.229Z,59.8
2016-05-27T06:32:34.029Z,59.89
2016-05-27T06:33:31.734Z,59.89
2016-05-27T06:34:31.112Z,59.8
2016-05-27T06:35:31.052Z,59.83
2016-05-27T06:36:30.992Z,59.73
2016-05-27T06:37:30.963Z,59.73
2016-05-27T06:38:30.904Z,59.73
2016-05-27T06:39:30.875Z,59.73
2016-05-27T06:40:30.847Z,59.44
2016-05-27T06:41:33.787Z,59.64
2016-05-27T06:42:30.570Z,59.25
2016-05-27T06:43:30.871Z,59.44
2016-05-27T06:44:36.654Z,59.64
2016-05-27T06:45:30.594Z,59.34
2016-05-27T06:46:30.550Z,59.44
2016-05-27T06:47:30.490Z,59.25
2016-05-27T06:48:30.743Z,59.16
2016-05-27T06:49:30.308Z,59.19
2016-05-27T06:50:30.358Z,59.06
2016-05-27T06:51:30.314Z,59.38
2016-05-27T06:52:30.113Z,58.99
2016-05-27T06:53:30.225Z,59.25
2016-05-27T06:54:33.181Z,59.06
2016-05-27T06:55:33.136Z,58.8
2016-05-27T06:56:30.094Z,58.51
2016-05-27T06:57:30.049Z,58.51
2016-05-27T06:58:33.005Z,58.42
2016-05-27T06:59:31.257Z,58.7
2016-05-27T07:00:29.915Z,58.03
2016-05-27T07:01:29.903Z,58.42
2016-05-27T07:02:29.828Z,58.03
2016-05-27T07:03:30.408Z,58.13
2016-05-27T07:04:36.457Z,58.13
2016-05-27T07:05:29.680Z,57.36
2016-05-27T07:06:32.651Z,57.36
2016-05-27T07:07:29.622Z,57.45
2016-05-27T07:08:29.563Z,56.98
2016-05-27T07:09:29.518Z,57.45
2016-05-27T07:10:29.474Z,56.78
2016-05-27T07:11:29.445Z,56.78
2016-05-27T07:12:29.214Z,56.59
2016-05-27T07:13:32.342Z,56.21
2016-05-27T07:14:30.516Z,56.4
2016-05-27T07:15:29.237Z,56.3
2016-05-27T07:16:29.397Z,55.56
2016-05-27T07:17:29.149Z,55.63
2016-05-27T07:18:28.949Z,55.56
2016-05-27T07:19:28.905Z,55.37
2016-05-27T07:20:29.033Z,55.08
2016-05-27T07:21:28.956Z,55.27
2016-05-27T07:22:28.929Z,55.27
2016-05-27T07:23:31.869Z,54.99
2016-05-27T07:24:29.964Z,55.18
2016-05-27T07:25:31.796Z,54.31
2016-05-27T07:26:31.736Z,54.6
2016-05-27T07:27:31.692Z,54.79
2016-05-27T07:28:31.897Z,53.92
2016-05-27T07:29:34.807Z,54.02
2016-05-27T07:30:28.419Z,54.02
2016-05-27T07:31:28.531Z,54.22
2016-05-27T07:32:28.486Z,54.02
2016-05-27T07:33:28.301Z,53.74
2016-05-27T07:34:28.414Z,53.74
2016-05-27T07:35:28.354Z,53.74
2016-05-27T07:36:28.591Z,53.57
2016-05-27T07:37:31.094Z,52.8
2016-05-27T07:38:28.206Z,52.8
2016-05-27T07:39:30.723Z,52.61
2016-05-27T07:40:31.133Z,52.42
2016-05-27T07:41:31.089Z,52.15
2016-05-27T07:42:28.029Z,52.06
2016-05-27T07:43:31.219Z,51.38
2016-05-27T07:44:35.894Z,51.19
2016-05-27T07:45:33.895Z,50.35
2016-05-27T07:46:39.884Z,49.96
2016-05-27T07:47:30.699Z,49.6
2016-05-27T07:48:27.873Z,49.41
2016-05-27T07:49:28.172Z,49.32
2016-05-27T07:50:27.895Z,49.12
2016-05-27T07:51:30.662Z,49.32
2016-05-27T07:52:27.586Z,49.12
2016-05-27T07:53:27.386Z,49.32
2016-05-27T07:54:31.342Z,48.93
2016-05-27T07:55:27.610Z,48.25
2016-05-27T07:56:27.441Z,48.44
2016-05-27T07:57:27.288Z,48.25
2016-05-27T07:58:27.431Z,48.35
2016-05-27T07:59:27.308Z,48.25
2016-05-27T08:00:27.281Z,48.06
2016-05-27T08:01:27.189Z,48.06
2016-05-27T08:02:27.035Z,47.8
2016-05-27T08:03:27.116Z,47.31
2016-05-27T08:04:31.151Z,47.51
2016-05-27T08:05:27.029Z,47.12
2016-05-27T08:06:26.984Z,47.03
2016-05-27T08:07:26.940Z,46.25
2016-05-27T08:08:26.895Z,46.93
2016-05-27T08:09:35.602Z,46.64
2016-05-27T08:10:26.792Z,46.45
2016-05-27T08:11:26.810Z,46.25
2016-05-27T08:12:29.734Z,46.83
2016-05-27T08:13:29.894Z,46.93
2016-05-27T08:14:30.912Z,46.35
2016-05-27T08:15:26.431Z,46.55
2016-05-27T08:16:26.542Z,47.03
2016-05-27T08:17:35.373Z,47.12
2016-05-27T08:18:29.485Z,46.73
2016-05-27T08:19:31.472Z,46.83
2016-05-27T08:20:26.615Z,47.03
2016-05-27T08:21:26.384Z,46.83
2016-05-27T08:22:26.324Z,46.64
2016-05-27T08:23:26.249Z,46.62
2016-05-27T08:24:28.314Z,46.81
2016-05-27T08:25:26.175Z,47.39
2016-05-27T08:26:29.100Z,46.81
2016-05-27T08:27:26.103Z,46.91
2016-05-27T08:28:26.028Z,47.49
2016-05-27T08:29:27.999Z,47.77
2016-05-27T08:30:25.783Z,47.67
2016-05-27T08:31:25.911Z,47.77
2016-05-27T08:32:28.866Z,47.67
2016-05-27T08:33:28.900Z,47.97
2016-05-27T08:34:25.763Z,47.87
2016-05-27T08:35:29.141Z,47.97
2016-05-27T08:36:25.690Z,47.51
2016-05-27T08:37:25.661Z,47.03
2016-05-27T08:38:25.648Z,47.12
2016-05-27T08:39:28.588Z,46.47
2016-05-27T08:40:25.373Z,46.37
2016-05-27T08:41:25.469Z,46.47
2016-05-27T08:42:28.643Z,46.47
2016-05-27T08:43:25.474Z,46.66
2016-05-27T08:44:25.415Z,45.99
2016-05-27T08:45:25.526Z,46.47
2016-05-27T08:46:25.420Z,45.7
2016-05-27T08:47:28.204Z,45.99
2016-05-27T08:48:28.159Z,45.79
2016-05-27T08:49:26.178Z,45.7
2016-05-27T08:50:25.087Z,45.79
2016-05-27T08:51:25.074Z,45.7
2016-05-27T08:52:24.999Z,45.51
2016-05-27T08:53:25.236Z,45.6
2016-05-27T08:54:27.332Z,45.72
2016-05-27T08:55:25.444Z,45.82
2016-05-27T08:56:24.822Z,45.14
2016-05-27T08:57:24.762Z,45.43
2016-05-27T08:58:24.733Z,45.24
2016-05-27T08:59:27.986Z,45.14
2016-05-27T09:00:24.644Z,45.53
2016-05-27T09:01:24.805Z,45.62
2016-05-27T09:02:24.557Z,45.82
2016-05-27T09:03:24.528Z,46.3
2016-05-27T09:04:33.234Z,46.56
2016-05-27T09:05:24.565Z,46.56
2016-05-27T09:06:24.396Z,46.76
2016-05-27T09:07:24.055Z,46.47
2016-05-27T09:08:24.182Z,45.7
2016-05-27T09:09:28.654Z,45.82
2016-05-27T09:10:24.250Z,45.82
2016-05-27T09:11:24.252Z,46.49
2016-05-27T09:12:27.162Z,46.28
2016-05-27T09:13:24.101Z,45.89
2016-05-27T09:14:28.543Z,46.11
2016-05-27T09:15:24.013Z,46.3
2016-05-27T09:16:23.969Z,46.11
2016-05-27T09:17:23.925Z,46.3
2016-05-27T09:18:23.882Z,46.18
2016-05-27T09:19:23.962Z,46.28
2016-05-27T09:20:26.808Z,46.3
2016-05-27T09:21:26.748Z,45.72
2016-05-27T09:22:23.766Z,45.82
2016-05-27T09:23:23.660Z,45.34
2016-05-27T09:24:25.288Z,45.82
2016-05-27T09:25:23.603Z,45.72
2016-05-27T09:26:23.559Z,46.01
2016-05-27T09:27:23.483Z,46.4
2016-05-27T09:28:23.455Z,46.2
2016-05-27T09:29:24.801Z,46.28
2016-05-27T09:30:26.382Z,46.47
2016-05-27T09:31:23.338Z,46.76
2016-05-27T09:32:26.419Z,47.05
2016-05-27T09:33:23.124Z,46.86
2016-05-27T09:34:23.877Z,47.05
2016-05-27T09:35:23.224Z,47.53
2016-05-27T09:36:26.727Z,47.44
2016-05-27T09:37:26.072Z,47.8
2016-05-27T09:38:23.216Z,47.51
2016-05-27T09:39:24.828Z,47.99
2016-05-27T09:40:23.127Z,48.08
2016-05-27T09:41:22.990Z,47.8
2016-05-27T09:42:23.555Z,47.99
2016-05-27T09:43:25.823Z,47.7
2016-05-27T09:44:22.779Z,47.6
2016-05-27T09:45:25.829Z,47.24
2016-05-27T09:46:25.721Z,47.72
2016-05-27T09:47:25.709Z,47.63
2016-05-27T09:48:25.602Z,47.22
2016-05-27T09:49:28.104Z,47.03
2016-05-27T09:50:22.514Z,46.95
2016-05-27T09:51:28.470Z,46.86
2016-05-27T09:52:25.628Z,46.47
2016-05-27T09:53:25.365Z,46.76
2016-05-27T09:54:25.368Z,46.78
2016-05-27T09:55:25.590Z,46.56
2016-05-27T09:56:25.280Z,46.56
2016-05-27T09:57:28.251Z,46.49
2016-05-27T09:58:22.160Z,46.69
2016-05-27T09:59:22.148Z,46.37
2016-05-27T10:00:22.103Z,46.3
2016-05-27T10:01:24.903Z,46.37
2016-05-27T10:02:22.202Z,45.72
2016-05-27T10:03:21.971Z,45.53
2016-05-27T10:04:22.269Z,45.62
2016-05-27T10:05:25.086Z,45.55
2016-05-27T10:06:21.823Z,45.34
2016-05-27T10:07:21.982Z,45.55
2016-05-27T10:08:21.796Z,45.34
2016-05-27T10:09:21.690Z,44.68
2016-05-27T10:10:21.645Z,44.49
2016-05-27T10:11:21.601Z,44.59
2016-05-27T10:12:21.824Z,44.49
2016-05-27T10:13:21.498Z,44.78
2016-05-27T10:14:21.469Z,44.78
2016-05-27T10:15:21.440Z,44.29
2016-05-27T10:16:21.396Z,44.29
2016-05-27T10:17:21.196Z,44.1
2016-05-27T10:18:21.168Z,44.49
2016-05-27T10:19:24.810Z,44.1
2016-05-27T10:20:21.063Z,44.2
2016-05-27T10:21:21.175Z,44.01
2016-05-27T10:22:21.381Z,44.1
2016-05-27T10:23:24.212Z,43.81
2016-05-27T10:24:24.449Z,44.01
2016-05-27T10:25:21.092Z,44.2
2016-05-27T10:26:24.189Z,44.39
2016-05-27T10:27:20.926Z,44.39
2016-05-27T10:28:30.506Z,44.39
2016-05-27T10:29:20.900Z,43.72
2016-05-27T10:30:23.809Z,43.72
2016-05-27T10:31:23.764Z,43.62
2016-05-27T10:32:20.783Z,43.62
2016-05-27T10:33:20.677Z,44.78
2016-05-27T10:34:21.397Z,45.26
2016-05-27T10:35:20.432Z,45.94
2016-05-27T10:36:20.544Z,46.61
2016-05-27T10:37:23.358Z,46.69
2016-05-27T10:38:20.472Z,47.17
2016-05-27T10:39:20.411Z,47.85
2016-05-27T10:40:23.366Z,48.13
2016-05-27T10:41:20.339Z,48.42
2016-05-27T10:42:23.529Z,49.29
2016-05-27T10:43:23.235Z,49.27
2016-05-27T10:44:20.269Z,49.55
2016-05-27T10:45:20.162Z,49.65
2016-05-27T10:46:20.133Z,50.13
2016-05-27T10:47:20.089Z,50.04
2016-05-27T10:48:20.248Z,50.01
2016-05-27T10:49:23.234Z,50.11
2016-05-27T10:50:19.972Z,50.13
2016-05-27T10:51:20.054Z,49.75
2016-05-27T10:52:19.884Z,49.65
2016-05-27T10:53:19.855Z,49.37
2016-05-27T10:54:19.764Z,49.75
2016-05-27T10:55:19.736Z,49.75
2016-05-27T10:56:19.935Z,50.13
2016-05-27T10:57:22.793Z,49.65
2016-05-27T10:58:22.680Z,49.65
2016-05-27T10:59:23.145Z,49.75
2016-05-27T11:00:19.659Z,49.65
2016-05-27T11:01:19.608Z,49.27
2016-05-27T11:02:19.589Z,48.71
2016-05-27T11:03:19.617Z,49.19
2016-05-27T11:04:25.518Z,49.17
2016-05-27T11:05:22.578Z,49.27
2016-05-27T11:06:19.631Z,49.19
2016-05-27T11:07:22.450Z,49
2016-05-27T11:08:19.346Z,48.81
2016-05-27T11:09:19.321Z,48.81
2016-05-27T11:10:22.515Z,49
2016-05-27T11:11:19.456Z,49.19
2016-05-27T11:12:19.460Z,48.71
2016-05-27T11:13:22.166Z,48.9
2016-05-27T11:14:19.171Z,48.71
2016-05-27T11:15:20.378Z,48.42
2016-05-27T11:16:18.912Z,48.42
2016-05-27T11:17:18.978Z,48.42
2016-05-27T11:18:18.964Z,48.61
2016-05-27T11:19:18.953Z,49
2016-05-27T11:20:26.128Z,49
2016-05-27T11:21:21.802Z,49.07
2016-05-27T11:22:19.493Z,49
2016-05-27T11:23:18.730Z,49.19
2016-05-27T11:24:18.905Z,49
2016-05-27T11:25:19.659Z,49.1
2016-05-27T11:26:18.692Z,48.42
2016-05-27T11:27:18.399Z,48.61
2016-05-27T11:28:18.510Z,49.1
2016-05-27T11:29:21.529Z,48.81
2016-05-27T11:30:18.515Z,49
2016-05-27T11:31:18.390Z,49
2016-05-27T11:32:21.365Z,49.1
2016-05-27T11:33:18.177Z,49.19
2016-05-27T11:34:18.902Z,48.61
2016-05-27T11:35:21.138Z,49
2016-05-27T11:36:18.185Z,48.33
2016-05-27T11:37:18.156Z,48.42
2016-05-27T11:38:18.709Z,48.03
2016-05-27T11:39:17.896Z,47.65
2016-05-27T11:40:19.324Z,47.77
2016-05-27T11:41:17.965Z,47.58
2016-05-27T11:42:17.920Z,47.77
2016-05-27T11:43:17.892Z,47.67
2016-05-27T11:44:17.832Z,47.67
2016-05-27T11:45:19.009Z,47.09
2016-05-27T11:46:17.743Z,47
2016-05-27T11:47:20.748Z,46.92
2016-05-27T11:48:17.686Z,46.64
2016-05-27T11:49:18.345Z,46.54
2016-05-27T11:50:17.598Z,46.44
2016-05-27T11:51:20.651Z,46.64
2016-05-27T11:52:17.698Z,46.54
2016-05-27T11:53:17.450Z,46.44
2016-05-27T11:54:17.452Z,46.34
2016-05-27T11:55:18.767Z,45.96
2016-05-27T11:56:17.349Z,45.96
2016-05-27T11:57:17.288Z,45.96
2016-05-27T11:58:17.260Z,46.25
2016-05-27T11:59:17.200Z,46.73
2016-05-27T12:00:20.488Z,46.23
2016-05-27T12:01:17.128Z,46.81
2016-05-27T12:02:17.161Z,46.81
2016-05-27T12:03:17.024Z,46.9
2016-05-27T12:04:18.104Z,46.81
2016-05-27T12:05:21.907Z,46.9
2016-05-27T12:06:19.910Z,46.9
2016-05-27T12:07:16.863Z,46.9
2016-05-27T12:08:16.865Z,46.71
2016-05-27T12:09:16.618Z,46.42
2016-05-27T12:10:16.870Z,46.61
2016-05-27T12:11:16.811Z,46.9
2016-05-27T12:12:19.676Z,47.09
2016-05-27T12:13:16.988Z,47.19
2016-05-27T12:14:16.397Z,46.71
2016-05-27T12:15:16.525Z,47.09
2016-05-27T12:16:19.465Z,47.19
2016-05-27T12:17:19.420Z,47.58
2016-05-27T12:18:16.376Z,47.55
2016-05-27T12:19:16.738Z,47.48
2016-05-27T12:20:16.304Z,47.29
2016-05-27T12:21:16.447Z,47.67
2016-05-27T12:22:16.214Z,47.38
2016-05-27T12:23:16.422Z,47.29
2016-05-27T12:24:16.205Z,47
2016-05-27T12:25:15.989Z,47.38
2016-05-27T12:26:16.039Z,46.71
2016-05-27T12:27:16.041Z,46.71
2016-05-27T12:28:15.997Z,46.61
2016-05-27T12:29:16.046Z,46.81
2016-05-27T12:30:15.861Z,46.9
2016-05-27T12:31:15.849Z,46.51
2016-05-27T12:32:15.788Z,46.71
2016-05-27T12:33:15.729Z,46.64
2016-05-27T12:34:19.216Z,46.44
2016-05-27T12:35:15.891Z,46.34
2016-05-27T12:36:15.628Z,46.06
2016-05-27T12:37:15.568Z,45.76
2016-05-27T12:38:15.399Z,45.18
2016-05-27T12:39:15.496Z,44.53
2016-05-27T12:40:18.654Z,44.34
2016-05-27T12:41:15.407Z,44.24
2016-05-27T12:42:24.365Z,44.92
2016-05-27T12:43:15.521Z,44.63
2016-05-27T12:44:15.274Z,44.82
2016-05-27T12:45:15.230Z,45.01
2016-05-27T12:46:18.217Z,44.82
2016-05-27T12:47:15.142Z,45.01
2016-05-27T12:48:15.129Z,45.01
2016-05-27T12:49:14.898Z,45.21
2016-05-27T12:50:14.853Z,45.11
2016-05-27T12:51:14.997Z,45.69
2016-05-27T12:52:17.953Z,44.92
2016-05-27T12:53:17.970Z,44.73
2016-05-27T12:54:15.145Z,44.43
2016-05-27T12:55:14.663Z,44.43
2016-05-27T12:56:15.322Z,45.01